sensor_id;sensor_type;location;lat;lon;timestamp;pressure;altitude;pressure_sealevel;temperature;humidity
74181;BME280;62544;50.826;14.354;2022-08-01T00:01:39;98930.68;;;17.36;80.47
74181;BME280;62544;50.826;14.354;2022-08-01T00:05:41;98928.38;;;17.33;80.21
74181;BME280;62544;50.826;14.354;2022-08-01T00:09:43;98927.34;;;17.30;79.25
74181;BME280;62544;50.826;14.354;2022-08-01T00:13:45;98924.64;;;17.27;80.41
74181;BME280;62544;50.826;14.354;2022-08-01T00:17:47;98921.26;;;17.24;80.17
74181;BME280;62544;50.826;14.354;2022-08-01T00:21:49;98916.09;;;17.23;80.25
74181;BME280;62544;50.826;14.354;2022-08-01T00:25:51;98910.46;;;17.22;79.80
74181;BME280;62544;50.826;14.354;2022-08-01T00:29:53;98905.63;;;17.22;79.68
74181;BME280;62544;50.826;14.354;2022-08-01T00:33:55;98901.46;;;17.20;79.99
74181;BME280;62544;50.826;14.354;2022-08-01T00:37:57;98898.00;;;17.21;79.57
74181;BME280;62544;50.826;14.354;2022-08-01T00:41:59;98894.14;;;17.21;79.81
74181;BME280;62544;50.826;14.354;2022-08-01T00:46:01;98892.90;;;17.20;79.62
74181;BME280;62544;50.826;14.354;2022-08-01T00:50:03;98892.13;;;17.19;79.14
74181;BME280;62544;50.826;14.354;2022-08-01T00:54:05;98891.35;;;17.15;80.13
74181;BME280;62544;50.826;14.354;2022-08-01T00:58:07;98890.81;;;17.12;79.97
74181;BME280;62544;50.826;14.354;2022-08-01T01:02:09;98890.90;;;17.08;79.97
74181;BME280;62544;50.826;14.354;2022-08-01T01:06:27;98889.97;;;17.05;79.94
74181;BME280;62544;50.826;14.354;2022-08-01T01:10:32;98887.36;;;17.03;79.69
74181;BME280;62544;50.826;14.354;2022-08-01T01:18:20;98883.25;;;16.97;79.62
74181;BME280;62544;50.826;14.354;2022-08-01T01:22:42;98882.45;;;16.94;79.60
74181;BME280;62544;50.826;14.354;2022-08-01T01:26:29;98882.33;;;16.92;79.53
74181;BME280;62544;50.826;14.354;2022-08-01T01:30:23;98883.04;;;16.90;79.64
74181;BME280;62544;50.826;14.354;2022-08-01T01:34:25;98882.78;;;16.87;80.12
74181;BME280;62544;50.826;14.354;2022-08-01T01:38:28;98883.59;;;16.84;79.93
74181;BME280;62544;50.826;14.354;2022-08-01T01:42:29;98882.90;;;16.81;80.38
74181;BME280;62544;50.826;14.354;2022-08-01T01:46:31;98882.74;;;16.78;80.40
74181;BME280;62544;50.826;14.354;2022-08-01T01:50:33;98882.25;;;16.75;80.55
74181;BME280;62544;50.826;14.354;2022-08-01T01:54:36;98881.19;;;16.71;80.95
74181;BME280;62544;50.826;14.354;2022-08-01T01:58:37;98879.35;;;16.66;81.27
74181;BME280;62544;50.826;14.354;2022-08-01T02:02:39;98878.43;;;16.58;81.84
74181;BME280;62544;50.826;14.354;2022-08-01T02:06:41;98878.85;;;16.51;81.88
74181;BME280;62544;50.826;14.354;2022-08-01T02:10:44;98879.13;;;16.42;81.60
74181;BME280;62544;50.826;14.354;2022-08-01T02:14:45;98879.53;;;16.35;81.75
74181;BME280;62544;50.826;14.354;2022-08-01T02:18:47;98880.75;;;16.28;81.51
74181;BME280;62544;50.826;14.354;2022-08-01T02:22:49;98881.52;;;16.21;81.62
74181;BME280;62544;50.826;14.354;2022-08-01T02:26:52;98880.32;;;16.13;82.07
74181;BME280;62544;50.826;14.354;2022-08-01T02:30:53;98878.96;;;16.04;82.42
74181;BME280;62544;50.826;14.354;2022-08-01T02:34:55;98877.36;;;15.93;82.59
74181;BME280;62544;50.826;14.354;2022-08-01T02:38:57;98876.28;;;15.79;82.09
74181;BME280;62544;50.826;14.354;2022-08-01T02:42:59;98875.16;;;15.64;82.30
74181;BME280;62544;50.826;14.354;2022-08-01T02:47:01;98875.33;;;15.49;82.39
74181;BME280;62544;50.826;14.354;2022-08-01T02:51:03;98876.59;;;15.34;82.50
74181;BME280;62544;50.826;14.354;2022-08-01T02:55:05;98878.23;;;15.21;83.60
74181;BME280;62544;50.826;14.354;2022-08-01T02:59:13;98880.63;;;15.11;83.53
74181;BME280;62544;50.826;14.354;2022-08-01T03:03:09;98882.31;;;15.04;83.65
74181;BME280;62544;50.826;14.354;2022-08-01T03:07:11;98882.50;;;15.02;84.50
74181;BME280;62544;50.826;14.354;2022-08-01T03:11:13;98883.67;;;15.02;84.17
74181;BME280;62544;50.826;14.354;2022-08-01T03:15:15;98883.91;;;15.04;84.27
74181;BME280;62544;50.826;14.354;2022-08-01T03:19:17;98884.63;;;15.08;84.50
74181;BME280;62544;50.826;14.354;2022-08-01T03:23:19;98887.09;;;15.12;84.27
74181;BME280;62544;50.826;14.354;2022-08-01T03:27:21;98887.58;;;15.18;84.01
74181;BME280;62544;50.826;14.354;2022-08-01T03:31:23;98889.89;;;15.24;84.04
74181;BME280;62544;50.826;14.354;2022-08-01T03:35:29;98892.16;;;15.31;84.50
74181;BME280;62544;50.826;14.354;2022-08-01T03:39:31;98895.15;;;15.38;84.05
74181;BME280;62544;50.826;14.354;2022-08-01T03:43:30;98896.58;;;15.44;83.52
74181;BME280;62544;50.826;14.354;2022-08-01T03:47:32;98897.74;;;15.52;83.40
74181;BME280;62544;50.826;14.354;2022-08-01T03:51:33;98898.49;;;15.58;83.63
74181;BME280;62544;50.826;14.354;2022-08-01T03:55:35;98900.08;;;15.65;83.59
74181;BME280;62544;50.826;14.354;2022-08-01T03:59:37;98899.52;;;15.72;83.43
74181;BME280;62544;50.826;14.354;2022-08-01T04:03:39;98901.51;;;15.78;83.49
74181;BME280;62544;50.826;14.354;2022-08-01T04:07:41;98903.36;;;15.84;83.20
74181;BME280;62544;50.826;14.354;2022-08-01T04:11:43;98905.28;;;15.87;83.81
74181;BME280;62544;50.826;14.354;2022-08-01T04:15:45;98907.12;;;15.93;83.50
74181;BME280;62544;50.826;14.354;2022-08-01T04:19:47;98907.64;;;15.99;83.22
74181;BME280;62544;50.826;14.354;2022-08-01T04:23:48;98906.84;;;16.05;83.34
74181;BME280;62544;50.826;14.354;2022-08-01T04:27:50;98907.61;;;16.11;83.57
74181;BME280;62544;50.826;14.354;2022-08-01T04:31:53;98907.58;;;16.15;83.41
74181;BME280;62544;50.826;14.354;2022-08-01T04:35:54;98907.14;;;16.19;83.22
74181;BME280;62544;50.826;14.354;2022-08-01T04:39:57;98907.08;;;16.24;83.25
74181;BME280;62544;50.826;14.354;2022-08-01T04:43:59;98907.87;;;16.29;83.17
74181;BME280;62544;50.826;14.354;2022-08-01T04:48:01;98908.24;;;16.37;82.84
74181;BME280;62544;50.826;14.354;2022-08-01T04:52:03;98908.61;;;16.46;82.45
74181;BME280;62544;50.826;14.354;2022-08-01T04:56:05;98908.33;;;16.55;81.88
74181;BME280;62544;50.826;14.354;2022-08-01T05:00:07;98909.58;;;16.65;81.19
74181;BME280;62544;50.826;14.354;2022-08-01T05:04:09;98909.83;;;16.76;80.83
74181;BME280;62544;50.826;14.354;2022-08-01T05:08:11;98910.24;;;16.90;79.97
74181;BME280;62544;50.826;14.354;2022-08-01T05:12:13;98909.48;;;17.05;79.21
74181;BME280;62544;50.826;14.354;2022-08-01T05:16:15;98909.18;;;17.21;78.91
74181;BME280;62544;50.826;14.354;2022-08-01T05:20:17;98908.48;;;17.36;78.35
74181;BME280;62544;50.826;14.354;2022-08-01T05:24:19;98907.90;;;17.50;77.62
74181;BME280;62544;50.826;14.354;2022-08-01T05:28:21;98908.00;;;17.64;77.09
74181;BME280;62544;50.826;14.354;2022-08-01T05:32:23;98909.67;;;17.77;76.92
74181;BME280;62544;50.826;14.354;2022-08-01T05:36:25;98910.46;;;17.90;76.95
74181;BME280;62544;50.826;14.354;2022-08-01T05:40:27;98912.20;;;18.03;76.79
74181;BME280;62544;50.826;14.354;2022-08-01T05:44:29;98912.59;;;18.19;75.65
74181;BME280;62544;50.826;14.354;2022-08-01T05:48:31;98911.69;;;18.38;74.70
74181;BME280;62544;50.826;14.354;2022-08-01T05:52:33;98911.22;;;18.56;73.94
74181;BME280;62544;50.826;14.354;2022-08-01T05:56:35;98911.41;;;18.77;73.40
74181;BME280;62544;50.826;14.354;2022-08-01T06:00:37;98911.16;;;18.98;72.47
74181;BME280;62544;50.826;14.354;2022-08-01T06:04:39;98912.75;;;19.23;71.14
74181;BME280;62544;50.826;14.354;2022-08-01T06:08:41;98914.86;;;19.51;68.65
74181;BME280;62544;50.826;14.354;2022-08-01T06:12:43;98915.84;;;19.75;68.37
74181;BME280;62544;50.826;14.354;2022-08-01T06:16:45;98916.02;;;19.95;67.99
74181;BME280;62544;50.826;14.354;2022-08-01T06:20:47;98915.92;;;20.16;67.64
74181;BME280;62544;50.826;14.354;2022-08-01T06:24:49;98918.73;;;20.38;66.24
74181;BME280;62544;50.826;14.354;2022-08-01T06:28:51;98919.94;;;20.63;65.10
74181;BME280;62544;50.826;14.354;2022-08-01T06:32:53;98920.39;;;20.93;64.86
74181;BME280;62544;50.826;14.354;2022-08-01T06:36:55;98921.28;;;21.29;63.92
74181;BME280;62544;50.826;14.354;2022-08-01T06:40:57;98922.05;;;21.59;62.63
74181;BME280;62544;50.826;14.354;2022-08-01T06:44:59;98922.13;;;21.82;62.64
74181;BME280;62544;50.826;14.354;2022-08-01T06:49:01;98921.95;;;22.05;60.52
74181;BME280;62544;50.826;14.354;2022-08-01T06:53:03;98923.14;;;22.29;60.36
74181;BME280;62544;50.826;14.354;2022-08-01T06:57:05;98924.36;;;22.54;59.71
74181;BME280;62544;50.826;14.354;2022-08-01T07:01:07;98925.57;;;22.69;59.27
74181;BME280;62544;50.826;14.354;2022-08-01T07:05:09;98928.61;;;22.89;59.07
74181;BME280;62544;50.826;14.354;2022-08-01T07:09:11;98928.25;;;23.20;57.20
74181;BME280;62544;50.826;14.354;2022-08-01T07:13:13;98928.99;;;23.37;58.43
74181;BME280;62544;50.826;14.354;2022-08-01T07:17:15;98929.55;;;23.56;57.28
74181;BME280;62544;50.826;14.354;2022-08-01T07:21:17;98930.25;;;23.76;57.23
74181;BME280;62544;50.826;14.354;2022-08-01T07:25:19;98930.47;;;23.94;56.79
74181;BME280;62544;50.826;14.354;2022-08-01T07:29:22;98930.87;;;24.03;57.49
74181;BME280;62544;50.826;14.354;2022-08-01T07:33:23;98932.36;;;24.12;56.10
74181;BME280;62544;50.826;14.354;2022-08-01T07:37:25;98934.05;;;24.25;55.92
74181;BME280;62544;50.826;14.354;2022-08-01T07:41:27;98936.21;;;24.34;55.22
74181;BME280;62544;50.826;14.354;2022-08-01T07:45:29;98938.26;;;24.38;55.91
74181;BME280;62544;50.826;14.354;2022-08-01T07:49:31;98940.58;;;24.35;56.64
74181;BME280;62544;50.826;14.354;2022-08-01T07:53:33;98943.54;;;24.26;57.16
74181;BME280;62544;50.826;14.354;2022-08-01T07:57:35;98947.63;;;24.11;58.18
74181;BME280;62544;50.826;14.354;2022-08-01T08:01:37;98950.99;;;24.02;58.01
74181;BME280;62544;50.826;14.354;2022-08-01T08:05:39;98955.77;;;23.92;58.80
74181;BME280;62544;50.826;14.354;2022-08-01T08:09:41;98957.56;;;23.86;59.10
74181;BME280;62544;50.826;14.354;2022-08-01T08:13:43;98958.59;;;23.78;59.57
74181;BME280;62544;50.826;14.354;2022-08-01T08:17:45;98960.66;;;23.73;58.93
74181;BME280;62544;50.826;14.354;2022-08-01T08:21:47;98963.83;;;23.75;58.43
74181;BME280;62544;50.826;14.354;2022-08-01T08:25:49;98964.95;;;23.83;57.72
74181;BME280;62544;50.826;14.354;2022-08-01T08:29:51;98966.55;;;23.89;58.62
74181;BME280;62544;50.826;14.354;2022-08-01T08:33:53;98967.88;;;23.96;57.89
74181;BME280;62544;50.826;14.354;2022-08-01T08:37:55;98969.08;;;24.10;56.63
74181;BME280;62544;50.826;14.354;2022-08-01T08:41:58;98970.98;;;24.20;56.98
74181;BME280;62544;50.826;14.354;2022-08-01T08:45:59;98971.89;;;24.22;58.35
74181;BME280;62544;50.826;14.354;2022-08-01T08:50:01;98975.17;;;24.21;59.58
74181;BME280;62544;50.826;14.354;2022-08-01T08:54:03;98980.02;;;24.16;60.66
74181;BME280;62544;50.826;14.354;2022-08-01T08:58:05;98986.16;;;24.18;60.39
74181;BME280;62544;50.826;14.354;2022-08-01T09:02:07;98990.41;;;24.26;58.57
74181;BME280;62544;50.826;14.354;2022-08-01T09:06:09;98993.19;;;24.38;57.86
74181;BME280;62544;50.826;14.354;2022-08-01T09:10:11;98996.33;;;24.64;56.70
74181;BME280;62544;50.826;14.354;2022-08-01T09:14:14;98999.06;;;24.80;57.24
74181;BME280;62544;50.826;14.354;2022-08-01T09:18:36;99002.08;;;24.86;58.66
74181;BME280;62544;50.826;14.354;2022-08-01T09:22:20;99005.78;;;24.87;58.24
74181;BME280;62544;50.826;14.354;2022-08-01T09:26:19;99008.56;;;25.02;57.21
74181;BME280;62544;50.826;14.354;2022-08-01T09:30:21;99009.55;;;25.40;54.48
74181;BME280;62544;50.826;14.354;2022-08-01T09:34:26;99010.05;;;25.77;52.20
74181;BME280;62544;50.826;14.354;2022-08-01T09:38:25;99011.22;;;25.94;54.01
74181;BME280;62544;50.826;14.354;2022-08-01T09:42:27;99009.83;;;26.19;52.39
74181;BME280;62544;50.826;14.354;2022-08-01T09:46:29;99009.74;;;26.33;53.54
74181;BME280;62544;50.826;14.354;2022-08-01T09:50:38;99009.06;;;26.56;52.04
74181;BME280;62544;50.826;14.354;2022-08-01T09:54:33;99008.23;;;26.96;48.57
74181;BME280;62544;50.826;14.354;2022-08-01T09:58:48;99009.28;;;27.10;51.07
74181;BME280;62544;50.826;14.354;2022-08-01T10:02:37;99011.89;;;27.09;52.46
74181;BME280;62544;50.826;14.354;2022-08-01T10:06:40;99016.35;;;27.06;53.75
74181;BME280;62544;50.826;14.354;2022-08-01T10:10:41;99017.67;;;27.03;52.54
74181;BME280;62544;50.826;14.354;2022-08-01T10:14:43;99016.05;;;27.08;50.44
74181;BME280;62544;50.826;14.354;2022-08-01T10:18:45;99014.84;;;27.17;49.85
74181;BME280;62544;50.826;14.354;2022-08-01T10:22:47;99013.22;;;27.31;50.36
74181;BME280;62544;50.826;14.354;2022-08-01T10:26:51;99011.86;;;27.31;51.53
74181;BME280;62544;50.826;14.354;2022-08-01T10:30:51;99011.64;;;27.25;52.04
74181;BME280;62544;50.826;14.354;2022-08-01T10:34:53;99011.42;;;27.22;51.52
74181;BME280;62544;50.826;14.354;2022-08-01T10:38:55;99011.46;;;27.08;52.57
74181;BME280;62544;50.826;14.354;2022-08-01T10:42:57;99010.25;;;26.84;52.33
74181;BME280;62544;50.826;14.354;2022-08-01T10:47:04;99009.76;;;26.65;53.31
74181;BME280;62544;50.826;14.354;2022-08-01T10:51:02;99007.39;;;26.44;53.50
74181;BME280;62544;50.826;14.354;2022-08-01T10:55:03;99003.50;;;26.40;52.57
74181;BME280;62544;50.826;14.354;2022-08-01T10:59:05;98999.73;;;26.66;49.40
74181;BME280;62544;50.826;14.354;2022-08-01T11:03:07;98995.03;;;26.99;48.39
74181;BME280;62544;50.826;14.354;2022-08-01T11:07:13;98990.80;;;27.38;47.26
74181;BME280;62544;50.826;14.354;2022-08-01T11:11:11;98988.44;;;27.80;45.15
74181;BME280;62544;50.826;14.354;2022-08-01T11:15:16;98984.47;;;28.16;44.32
74181;BME280;62544;50.826;14.354;2022-08-01T11:19:15;98980.74;;;28.49;43.12
74181;BME280;62544;50.826;14.354;2022-08-01T11:23:17;98978.19;;;28.80;43.18
74181;BME280;62544;50.826;14.354;2022-08-01T11:27:25;98976.11;;;28.93;42.44
74181;BME280;62544;50.826;14.354;2022-08-01T11:31:24;98974.63;;;28.99;43.56
74181;BME280;62544;50.826;14.354;2022-08-01T11:35:23;98973.42;;;29.00;45.67
74181;BME280;62544;50.826;14.354;2022-08-01T11:39:25;98972.69;;;28.92;44.42
74181;BME280;62544;50.826;14.354;2022-08-01T11:43:27;98971.34;;;28.79;45.13
74181;BME280;62544;50.826;14.354;2022-08-01T11:51:31;98965.26;;;28.82;43.83
74181;BME280;62544;50.826;14.354;2022-08-01T11:55:33;98963.45;;;28.98;43.85
74181;BME280;62544;50.826;14.354;2022-08-01T11:59:36;98962.06;;;29.03;44.03
74181;BME280;62544;50.826;14.354;2022-08-01T12:03:37;98961.24;;;29.14;43.68
74181;BME280;62544;50.826;14.354;2022-08-01T12:07:39;98963.61;;;29.08;44.09
74181;BME280;62544;50.826;14.354;2022-08-01T12:11:41;98969.25;;;28.82;47.72
74181;BME280;62544;50.826;14.354;2022-08-01T12:15:43;98972.56;;;28.48;49.79
74181;BME280;62544;50.826;14.354;2022-08-01T12:19:46;98973.88;;;28.16;51.08
74181;BME280;62544;50.826;14.354;2022-08-01T12:23:59;98975.28;;;27.94;51.92
74181;BME280;62544;50.826;14.354;2022-08-01T12:27:49;98976.42;;;27.70;50.93
74181;BME280;62544;50.826;14.354;2022-08-01T12:31:51;98976.26;;;27.63;49.79
74181;BME280;62544;50.826;14.354;2022-08-01T12:35:53;98973.97;;;27.76;47.98
74181;BME280;62544;50.826;14.354;2022-08-01T12:39:55;98972.10;;;27.87;48.21
74181;BME280;62544;50.826;14.354;2022-08-01T12:43:57;98970.09;;;28.08;47.27
74181;BME280;62544;50.826;14.354;2022-08-01T12:47:59;98967.63;;;28.39;45.78
74181;BME280;62544;50.826;14.354;2022-08-01T12:52:01;98965.21;;;28.74;40.96
74181;BME280;62544;50.826;14.354;2022-08-01T12:56:03;98963.17;;;29.35;37.85
74181;BME280;62544;50.826;14.354;2022-08-01T13:04:07;98958.86;;;30.31;36.26
74181;BME280;62544;50.826;14.354;2022-08-01T13:08:12;98959.91;;;30.74;36.88
74181;BME280;62544;50.826;14.354;2022-08-01T13:12:11;98960.17;;;31.07;36.80
74181;BME280;62544;50.826;14.354;2022-08-01T13:16:13;98961.24;;;31.66;34.04
74181;BME280;62544;50.826;14.354;2022-08-01T13:20:21;98962.05;;;31.84;37.28
74181;BME280;62544;50.826;14.354;2022-08-01T13:24:21;98965.34;;;31.41;42.12
74181;BME280;62544;50.826;14.354;2022-08-01T13:28:22;98968.56;;;30.89;43.24
74181;BME280;62544;50.826;14.354;2022-08-01T13:32:21;98973.91;;;30.37;43.57
74181;BME280;62544;50.826;14.354;2022-08-01T13:36:22;98980.92;;;29.81;44.24
74181;BME280;62544;50.826;14.354;2022-08-01T13:40:25;98983.36;;;29.94;39.56
74181;BME280;62544;50.826;14.354;2022-08-01T13:44:27;98982.26;;;30.72;34.66
74181;BME280;62544;50.826;14.354;2022-08-01T13:48:29;98981.60;;;31.24;34.62
74181;BME280;62544;50.826;14.354;2022-08-01T13:52:31;98978.08;;;31.88;32.36
74181;BME280;62544;50.826;14.354;2022-08-01T13:56:33;98975.37;;;31.98;36.07
74181;BME280;62544;50.826;14.354;2022-08-01T14:00:35;98972.74;;;32.35;33.50
74181;BME280;62544;50.826;14.354;2022-08-01T14:04:37;98969.95;;;32.77;33.07
74181;BME280;62544;50.826;14.354;2022-08-01T14:08:38;98967.94;;;33.31;31.41
74181;BME280;62544;50.826;14.354;2022-08-01T14:12:40;98966.42;;;33.57;33.05
74181;BME280;62544;50.826;14.354;2022-08-01T14:16:43;98965.92;;;33.54;33.48
74181;BME280;62544;50.826;14.354;2022-08-01T14:20:45;98964.92;;;33.50;34.33
74181;BME280;62544;50.826;14.354;2022-08-01T14:24:46;98966.89;;;33.23;36.28
74181;BME280;62544;50.826;14.354;2022-08-01T14:28:48;98969.44;;;33.26;33.32
74181;BME280;62544;50.826;14.354;2022-08-01T14:32:51;98972.20;;;33.35;33.52
74181;BME280;62544;50.826;14.354;2022-08-01T14:36:53;98972.94;;;33.48;32.92
74181;BME280;62544;50.826;14.354;2022-08-01T14:40:55;98974.06;;;33.65;33.08
74181;BME280;62544;50.826;14.354;2022-08-01T14:44:56;98976.45;;;33.58;34.33
74181;BME280;62544;50.826;14.354;2022-08-01T14:48:59;98976.98;;;33.58;32.55
74181;BME280;62544;50.826;14.354;2022-08-01T14:53:01;98976.85;;;33.73;32.89
74181;BME280;62544;50.826;14.354;2022-08-01T14:57:03;98977.54;;;33.95;31.19
74181;BME280;62544;50.826;14.354;2022-08-01T15:01:04;98978.20;;;34.15;31.07
74181;BME280;62544;50.826;14.354;2022-08-01T15:05:07;98977.63;;;34.07;33.05
74181;BME280;62544;50.826;14.354;2022-08-01T15:09:09;98977.79;;;33.88;33.86
74181;BME280;62544;50.826;14.354;2022-08-01T15:13:10;98980.25;;;33.35;36.78
74181;BME280;62544;50.826;14.354;2022-08-01T15:17:13;98981.89;;;33.02;35.69
74181;BME280;62544;50.826;14.354;2022-08-01T15:21:15;98983.45;;;32.60;37.72
74181;BME280;62544;50.826;14.354;2022-08-01T15:25:17;98986.06;;;31.73;42.73
74181;BME280;62544;50.826;14.354;2022-08-01T15:29:18;98990.16;;;30.82;43.78
74181;BME280;62544;50.826;14.354;2022-08-01T15:33:20;98993.06;;;30.24;42.87
74181;BME280;62544;50.826;14.354;2022-08-01T15:37:22;98994.78;;;30.06;40.16
74181;BME280;62544;50.826;14.354;2022-08-01T15:41:24;98998.17;;;30.18;37.77
74181;BME280;62544;50.826;14.354;2022-08-01T15:45:26;98999.44;;;30.35;37.11
74181;BME280;62544;50.826;14.354;2022-08-01T15:49:28;99002.09;;;30.22;38.84
74181;BME280;62544;50.826;14.354;2022-08-01T15:53:30;99004.41;;;30.15;38.17
74181;BME280;62544;50.826;14.354;2022-08-01T15:57:32;99006.91;;;29.97;39.31
74181;BME280;62544;50.826;14.354;2022-08-01T16:01:34;99007.15;;;29.87;39.17
74181;BME280;62544;50.826;14.354;2022-08-01T16:05:36;99006.41;;;29.83;37.84
74181;BME280;62544;50.826;14.354;2022-08-01T16:09:39;99006.28;;;29.77;39.01
74181;BME280;62544;50.826;14.354;2022-08-01T16:13:41;99006.70;;;29.63;39.40
74181;BME280;62544;50.826;14.354;2022-08-01T16:17:43;99007.53;;;29.39;40.81
74181;BME280;62544;50.826;14.354;2022-08-01T16:21:45;99008.56;;;29.19;40.79
74181;BME280;62544;50.826;14.354;2022-08-01T16:25:47;99007.78;;;29.02;40.89
74181;BME280;62544;50.826;14.354;2022-08-01T16:29:49;99007.78;;;28.94;39.99
74181;BME280;62544;50.826;14.354;2022-08-01T16:33:51;99008.76;;;28.97;39.22
74181;BME280;62544;50.826;14.354;2022-08-01T16:37:53;99008.36;;;29.06;39.27
74181;BME280;62544;50.826;14.354;2022-08-01T16:41:55;99007.33;;;29.07;39.98
74181;BME280;62544;50.826;14.354;2022-08-01T16:45:57;99007.33;;;29.01;40.54
74181;BME280;62544;50.826;14.354;2022-08-01T16:49:59;99006.39;;;28.86;41.62
74181;BME280;62544;50.826;14.354;2022-08-01T16:54:01;99005.30;;;28.70;41.94
74181;BME280;62544;50.826;14.354;2022-08-01T16:58:03;99005.30;;;28.46;43.55
74181;BME280;62544;50.826;14.354;2022-08-01T17:02:05;99006.08;;;28.23;43.67
74181;BME280;62544;50.826;14.354;2022-08-01T17:06:07;99008.31;;;27.98;44.29
74181;BME280;62544;50.826;14.354;2022-08-01T17:10:09;99010.82;;;27.68;44.53
74181;BME280;62544;50.826;14.354;2022-08-01T17:14:11;99013.83;;;27.45;44.42
74181;BME280;62544;50.826;14.354;2022-08-01T17:18:12;99017.13;;;27.33;44.48
74181;BME280;62544;50.826;14.354;2022-08-01T17:22:14;99020.70;;;27.21;44.85
74181;BME280;62544;50.826;14.354;2022-08-01T17:26:17;99025.83;;;27.02;45.71
74181;BME280;62544;50.826;14.354;2022-08-01T17:30:19;99030.02;;;26.80;46.52
74181;BME280;62544;50.826;14.354;2022-08-01T17:34:20;99034.16;;;26.59;47.27
74181;BME280;62544;50.826;14.354;2022-08-01T17:38:22;99036.54;;;26.41;47.55
74181;BME280;62544;50.826;14.354;2022-08-01T17:42:25;99039.96;;;26.28;47.59
74181;BME280;62544;50.826;14.354;2022-08-01T17:46:26;99042.63;;;26.16;47.95
74181;BME280;62544;50.826;14.354;2022-08-01T17:50:28;99045.43;;;25.99;48.49
74181;BME280;62544;50.826;14.354;2022-08-01T17:54:30;99048.97;;;25.79;49.73
74181;BME280;62544;50.826;14.354;2022-08-01T17:58:33;99052.35;;;25.60;49.65
74181;BME280;62544;50.826;14.354;2022-08-01T18:02:34;99055.72;;;25.43;50.63
74181;BME280;62544;50.826;14.354;2022-08-01T18:06:36;99057.97;;;25.25;51.41
74181;BME280;62544;50.826;14.354;2022-08-01T18:10:39;99059.29;;;25.06;51.83
74181;BME280;62544;50.826;14.354;2022-08-01T18:14:41;99060.78;;;24.88;52.33
74181;BME280;62544;50.826;14.354;2022-08-01T18:18:43;99063.51;;;24.73;52.30
74181;BME280;62544;50.826;14.354;2022-08-01T18:22:44;99066.49;;;24.59;53.46
74181;BME280;62544;50.826;14.354;2022-08-01T18:26:49;99068.26;;;24.43;53.49
74181;BME280;62544;50.826;14.354;2022-08-01T18:30:48;99071.20;;;24.27;54.42
74181;BME280;62544;50.826;14.354;2022-08-01T18:34:51;99073.08;;;24.08;55.78
74181;BME280;62544;50.826;14.354;2022-08-01T18:38:53;99075.55;;;23.85;56.97
74181;BME280;62544;50.826;14.354;2022-08-01T18:42:54;99078.80;;;23.61;57.72
74181;BME280;62544;50.826;14.354;2022-08-01T18:46:56;99081.36;;;23.34;59.14
74181;BME280;62544;50.826;14.354;2022-08-01T18:50:58;99084.31;;;23.06;60.29
74181;BME280;62544;50.826;14.354;2022-08-01T18:55:00;99087.29;;;22.74;61.17
74181;BME280;62544;50.826;14.354;2022-08-01T18:59:02;99090.05;;;22.43;61.63
74181;BME280;62544;50.826;14.354;2022-08-01T19:03:04;99093.97;;;22.12;62.07
74181;BME280;62544;50.826;14.354;2022-08-01T19:07:06;99099.78;;;21.81;63.25
74181;BME280;62544;50.826;14.354;2022-08-01T19:11:08;99105.74;;;21.51;64.11
74181;BME280;62544;50.826;14.354;2022-08-01T19:15:10;99113.60;;;21.21;65.26
74181;BME280;62544;50.826;14.354;2022-08-01T19:19:12;99121.99;;;20.94;65.45
74181;BME280;62544;50.826;14.354;2022-08-01T19:23:14;99129.55;;;20.67;67.26
74181;BME280;62544;50.826;14.354;2022-08-01T19:27:16;99138.30;;;20.42;66.97
74181;BME280;62544;50.826;14.354;2022-08-01T19:31:20;99147.91;;;20.16;67.51
74181;BME280;62544;50.826;14.354;2022-08-01T19:35:20;99156.22;;;19.92;67.89
74181;BME280;62544;50.826;14.354;2022-08-01T19:39:23;99164.65;;;19.69;69.53
74181;BME280;62544;50.826;14.354;2022-08-01T19:43:24;99172.24;;;19.48;70.21
74181;BME280;62544;50.826;14.354;2022-08-01T19:47:26;99178.14;;;19.28;70.48
74181;BME280;62544;50.826;14.354;2022-08-01T19:51:28;99183.73;;;19.09;70.55
74181;BME280;62544;50.826;14.354;2022-08-01T19:55:30;99188.34;;;18.91;71.53
74181;BME280;62544;50.826;14.354;2022-08-01T19:59:33;99191.80;;;18.72;71.55
74181;BME280;62544;50.826;14.354;2022-08-01T20:03:35;99194.65;;;18.53;72.39
74181;BME280;62544;50.826;14.354;2022-08-01T20:07:36;99198.58;;;18.34;72.50
74181;BME280;62544;50.826;14.354;2022-08-01T20:11:48;99202.34;;;18.15;73.08
74181;BME280;62544;50.826;14.354;2022-08-01T20:15:41;99207.06;;;17.98;74.21
74181;BME280;62544;50.826;14.354;2022-08-01T20:19:42;99212.25;;;17.82;74.40
74181;BME280;62544;50.826;14.354;2022-08-01T20:23:45;99218.12;;;17.68;75.08
74181;BME280;62544;50.826;14.354;2022-08-01T20:27:46;99223.67;;;17.54;76.89
74181;BME280;62544;50.826;14.354;2022-08-01T20:31:49;99229.72;;;17.39;75.24
74181;BME280;62544;50.826;14.354;2022-08-01T20:35:51;99233.23;;;17.25;75.68
74181;BME280;62544;50.826;14.354;2022-08-01T20:39:52;99237.11;;;17.11;75.19
74181;BME280;62544;50.826;14.354;2022-08-01T20:43:55;99239.94;;;16.97;77.01
74181;BME280;62544;50.826;14.354;2022-08-01T20:47:56;99241.88;;;16.83;76.43
74181;BME280;62544;50.826;14.354;2022-08-01T20:51:59;99244.97;;;16.69;77.25
74181;BME280;62544;50.826;14.354;2022-08-01T20:56:05;99247.19;;;16.54;77.64
74181;BME280;62544;50.826;14.354;2022-08-01T21:00:03;99248.67;;;16.40;77.67
74181;BME280;62544;50.826;14.354;2022-08-01T21:08:09;99252.12;;;16.15;79.52
74181;BME280;62544;50.826;14.354;2022-08-01T21:12:10;99254.35;;;16.03;80.17
74181;BME280;62544;50.826;14.354;2022-08-01T21:16:11;99256.84;;;15.92;79.97
74181;BME280;62544;50.826;14.354;2022-08-01T21:20:13;99258.64;;;15.80;79.11